Time;durP1;ratioP1;P1;durP2;ratioP2;P2;SDS_P1;SDS_P2;PMS_P1;PMS_P2;Temp;Humidity;BMP_temperature;BMP_pressure;BME280_temperature;BME280_humidity;BME280_pressure;Samples;Min_cycle;Max_cycle;Signal;HPM_P1;HPM_P2
2022/11/20 00:02:18;;;;;;;25.70;13.10;;;0.10;99.90;;;;;;5034013;28;20453;-69
2022/11/20 00:04:44;;;;;;;21.63;13.00;;;0.10;99.90;;;;;;5033031;28;21163;-69
2022/11/20 00:07:11;;;;;;;21.53;12.80;;;0.10;99.90;;;;;;5033345;28;20504;-69
2022/11/20 00:09:38;;;;;;;30.20;14.40;;;0.10;99.90;;;;;;5034314;28;20451;-69
2022/11/20 00:12:05;;;;;;;28.20;14.53;;;0.10;99.90;;;;;;5032984;28;20457;-69
2022/11/20 00:14:33;;;;;;;26.43;14.60;;;0.10;99.90;;;;;;5032993;28;20476;-69
2022/11/20 00:17:00;;;;;;;28.17;14.60;;;0.10;99.90;;;;;;5033793;28;20460;-69
2022/11/20 00:19:26;;;;;;;25.80;13.83;;;0.10;99.90;;;;;;5034098;28;20452;-69
2022/11/20 00:21:55;;;;;;;22.57;13.10;;;0.10;99.90;;;;;;5033620;28;20945;-69
2022/11/20 00:24:21;;;;;;;24.00;13.80;;;0.10;99.90;;;;;;5034020;28;20474;-69
2022/11/20 00:26:48;;;;;;;25.83;14.90;;;0.00;99.90;;;;;;5033445;28;20531;-69
2022/11/20 00:29:15;;;;;;;30.10;15.47;;;0.00;99.90;;;;;;5033888;28;20460;-69
2022/11/20 00:31:43;;;;;;;24.57;12.63;;;0.00;99.90;;;;;;5033362;28;20462;-69
2022/11/20 00:34:10;;;;;;;25.43;13.77;;;0.00;99.90;;;;;;5020947;28;20480;-69
2022/11/20 00:36:37;;;;;;;24.00;13.27;;;0.00;99.90;;;;;;5033713;28;20453;-68
2022/11/20 00:39:04;;;;;;;25.63;13.53;;;0.00;99.90;;;;;;5033247;28;20451;-69
2022/11/20 00:41:31;;;;;;;24.20;12.97;;;0.00;99.90;;;;;;5018764;28;20508;-69
2022/11/20 00:43:58;;;;;;;26.10;13.63;;;0.00;99.90;;;;;;5033548;28;20880;-69
2022/11/20 00:46:26;;;;;;;23.77;12.60;;;0.00;99.90;;;;;;5033428;28;20541;-69
2022/11/20 00:48:54;;;;;;;23.03;13.53;;;0.00;99.90;;;;;;5033065;28;20460;-69
2022/11/20 00:51:23;;;;;;;24.33;13.67;;;0.00;99.90;;;;;;5033112;28;20458;-68
2022/11/20 00:53:50;;;;;;;25.80;14.00;;;0.00;99.90;;;;;;5033148;28;20484;-68
2022/11/20 00:56:19;;;;;;;23.87;13.30;;;-0.10;99.90;;;;;;5033478;28;20458;-69
2022/11/20 00:58:47;;;;;;;25.87;14.70;;;0.00;99.90;;;;;;5033030;28;20858;-69
2022/11/20 01:01:16;;;;;;;30.50;14.17;;;0.00;99.90;;;;;;5032759;28;20454;-68
2022/11/20 01:03:44;;;;;;;26.30;14.13;;;0.00;99.90;;;;;;5033617;28;20468;-69
2022/11/20 01:06:15;;;;;;;24.10;13.77;;;0.00;99.90;;;;;;5032753;28;20476;-69
2022/11/20 01:08:42;;;;;;;22.90;13.37;;;0.00;99.90;;;;;;5018617;28;20460;-68
2022/11/20 01:11:11;;;;;;;24.07;13.13;;;-0.10;99.90;;;;;;5032666;28;20464;-69
2022/11/20 01:13:39;;;;;;;21.43;12.27;;;-0.10;99.90;;;;;;5032733;28;20476;-68
2022/11/20 01:16:07;;;;;;;24.17;13.77;;;-0.20;99.90;;;;;;5032310;28;20812;-69
2022/11/20 01:18:34;;;;;;;23.80;13.60;;;-0.20;99.90;;;;;;5033117;28;20448;-69
2022/11/20 01:21:05;;;;;;;23.63;13.23;;;-0.30;99.90;;;;;;5032532;28;20459;-68
2022/11/20 01:23:35;;;;;;;22.90;13.43;;;-0.30;99.90;;;;;;5032227;28;21039;-69
2022/11/20 01:26:03;;;;;;;25.93;14.40;;;-0.30;99.90;;;;;;5032865;28;20496;-68
2022/11/20 01:28:30;;;;;;;27.63;13.57;;;-0.20;99.90;;;;;;5032428;28;20508;-68
2022/11/20 01:30:57;;;;;;;23.77;13.30;;;-0.20;99.90;;;;;;5032354;28;20452;-69
2022/11/20 01:33:24;;;;;;;25.07;13.50;;;-0.20;99.90;;;;;;5033019;28;20550;-69
2022/11/20 01:35:51;;;;;;;26.20;14.07;;;-0.20;99.90;;;;;;5032196;28;20463;-69
2022/11/20 01:38:19;;;;;;;23.10;13.23;;;-0.20;99.90;;;;;;5032168;28;20462;-69
2022/11/20 01:40:55;;;;;;;25.53;14.67;;;-0.20;99.90;;;;;;5032590;28;20456;-69
2022/11/20 01:43:21;;;;;;;25.23;13.60;;;-0.20;99.90;;;;;;5032311;28;20473;-69
2022/11/20 01:45:59;;;;;;;29.27;15.30;;;-0.30;99.90;;;;;;5032020;28;20820;-69
2022/11/20 01:48:30;;;;;;;27.10;12.90;;;-0.30;99.90;;;;;;5032083;28;20460;-69
2022/11/20 01:50:58;;;;;;;27.20;14.93;;;-0.30;99.90;;;;;;5032554;28;20458;-69
2022/11/20 01:53:29;;;;;;;27.77;14.63;;;-0.30;99.90;;;;;;5031989;28;20579;-69
2022/11/20 01:55:59;;;;;;;25.43;13.90;;;-0.40;99.90;;;;;;5032049;28;20465;-69
2022/11/20 01:58:30;;;;;;;23.20;14.13;;;-0.40;99.90;;;;;;5031912;28;20982;-69
2022/11/20 02:00:57;;;;;;;24.97;13.63;;;-0.40;99.90;;;;;;5031478;28;20520;-69
2022/11/20 02:03:24;;;;;;;23.93;13.90;;;-0.40;99.90;;;;;;5032058;28;20468;-69
2022/11/20 02:05:56;;;;;;;26.83;14.33;;;-0.40;99.90;;;;;;5032152;28;20455;-69
2022/11/20 02:08:24;;;;;;;26.13;13.87;;;-0.50;99.90;;;;;;5031445;28;20809;-68
2022/11/20 02:10:50;;;;;;;25.70;13.90;;;-0.50;99.90;;;;;;5032086;28;20461;-69
2022/11/20 02:16:04;;;;;;;22.30;13.27;;;-0.50;99.90;;;;;;5031676;28;20451;-68
2022/11/20 02:18:31;;;;;;;24.60;13.13;;;-0.50;99.90;;;;;;5031387;28;20882;-69
2022/11/20 02:21:05;;;;;;;27.73;14.80;;;-0.50;99.90;;;;;;5031813;28;20447;-68
2022/11/20 02:23:37;;;;;;;28.53;14.50;;;-0.50;99.90;;;;;;5030835;28;21014;-68
2022/11/20 02:26:09;;;;;;;26.30;13.80;;;-0.50;99.90;;;;;;5031963;28;20507;-69
2022/11/20 02:28:35;;;;;;;26.30;13.60;;;-0.50;99.90;;;;;;5031691;28;20890;-68
2022/11/20 02:31:02;;;;;;;24.43;13.13;;;-0.50;99.90;;;;;;5031266;28;20445;-68
2022/11/20 02:33:29;;;;;;;25.90;14.27;;;-0.50;99.90;;;;;;5031472;28;20472;-68
2022/11/20 02:35:55;;;;;;;23.03;13.00;;;-0.50;99.90;;;;;;5031324;28;20468;-68
2022/11/20 02:38:22;;;;;;;23.20;12.77;;;-0.50;99.90;;;;;;5031166;28;20464;-68
2022/11/20 02:40:49;;;;;;;22.97;13.83;;;-0.50;99.90;;;;;;5031400;28;20487;-69
2022/11/20 02:43:18;;;;;;;24.40;12.90;;;-0.50;99.90;;;;;;5031660;28;20472;-69
2022/11/20 02:45:44;;;;;;;41.30;15.20;;;-0.50;99.90;;;;;;5031198;28;20456;-68
2022/11/20 02:48:11;;;;;;;26.07;13.93;;;-0.50;99.90;;;;;;5031236;28;20538;-69
2022/11/20 02:50:39;;;;;;;24.07;13.87;;;-0.50;99.90;;;;;;5030861;28;20451;-68
2022/11/20 02:53:06;;;;;;;30.17;14.80;;;-0.50;99.90;;;;;;5030774;28;20984;-69
2022/11/20 02:55:33;;;;;;;26.40;14.43;;;-0.40;99.90;;;;;;5031391;28;20901;-69
2022/11/20 02:58:00;;;;;;;26.50;14.27;;;-0.40;99.90;;;;;;5031142;28;20452;-68
2022/11/20 03:00:28;;;;;;;27.30;13.20;;;-0.30;99.90;;;;;;5031191;28;20505;-68
2022/11/20 03:02:55;;;;;;;23.77;13.47;;;-0.30;99.90;;;;;;5031368;28;20469;-68
2022/11/20 03:05:21;;;;;;;26.17;13.37;;;-0.30;99.90;;;;;;5030407;28;20452;-68
2022/11/20 03:07:48;;;;;;;27.20;13.90;;;-0.30;99.90;;;;;;5031077;28;20480;-69
2022/11/20 03:10:15;;;;;;;24.40;13.30;;;-0.30;99.90;;;;;;5031186;28;20531;-68
2022/11/20 03:12:41;;;;;;;33.80;14.90;;;-0.30;99.90;;;;;;5030591;28;20462;-69
2022/11/20 03:15:09;;;;;;;24.27;12.60;;;-0.20;99.90;;;;;;5031019;28;20455;-69
2022/11/20 03:17:37;;;;;;;24.83;13.30;;;-0.30;99.90;;;;;;5031046;28;20819;-68
2022/11/20 03:20:05;;;;;;;22.90;13.20;;;-0.30;99.90;;;;;;5031433;28;20456;-68
2022/11/20 03:22:32;;;;;;;27.30;14.03;;;-0.20;99.90;;;;;;5031121;28;20460;-68
2022/11/20 03:24:59;;;;;;;25.03;13.60;;;-0.20;99.90;;;;;;5030813;28;20973;-69
2022/11/20 03:27:25;;;;;;;27.67;13.70;;;-0.20;99.90;;;;;;5031338;28;20485;-68
2022/11/20 03:29:52;;;;;;;20.37;12.77;;;-0.10;99.90;;;;;;5030842;28;20457;-68
2022/11/20 03:32:19;;;;;;;24.97;14.40;;;-0.10;99.90;;;;;;5031239;28;20460;-68
2022/11/20 03:34:47;;;;;;;25.57;13.70;;;-0.10;99.90;;;;;;5031177;28;20464;-69
2022/11/20 03:37:15;;;;;;;25.50;12.87;;;-0.10;99.90;;;;;;5030583;28;20459;-68
2022/11/20 03:39:41;;;;;;;29.17;13.60;;;-0.10;99.90;;;;;;5032162;28;20457;-68
2022/11/20 03:42:44;;;;;;;25.83;13.53;;;-0.10;99.90;;;;;;5034456;28;20486;-69
2022/11/20 03:44:56;;;;;;;26.33;13.93;;;-0.10;99.90;;;;;;5034501;28;20464;-69
2022/11/20 03:47:23;;;;;;;25.07;13.97;;;-0.20;99.90;;;;;;5034602;28;20498;-69
2022/11/20 03:49:51;;;;;;;22.63;13.90;;;-0.30;99.90;;;;;;5034770;28;20448;-68
2022/11/20 03:52:17;;;;;;;21.83;13.37;;;-0.20;99.90;;;;;;5033934;28;20452;-68
2022/11/20 03:54:44;;;;;;;25.10;14.10;;;-0.20;99.90;;;;;;5034236;28;20481;-68
2022/11/20 03:57:11;;;;;;;29.40;14.57;;;-0.20;99.90;;;;;;5034798;28;20435;-68
2022/11/20 03:59:37;;;;;;;23.50;12.77;;;-0.20;99.90;;;;;;5034657;28;20701;-69
2022/11/20 04:02:04;;;;;;;26.93;14.00;;;-0.10;99.90;;;;;;5034434;28;20459;-68
2022/11/20 04:04:31;;;;;;;25.53;14.70;;;-0.10;99.90;;;;;;5034042;28;20470;-68
2022/11/20 04:06:59;;;;;;;26.77;13.00;;;0.00;99.90;;;;;;5033927;28;20503;-68
2022/11/20 04:09:25;;;;;;;24.77;13.80;;;0.00;99.90;;;;;;5033989;28;20458;-68
2022/11/20 04:11:52;;;;;;;26.73;13.47;;;0.10;99.90;;;;;;5033744;28;20508;-68
2022/11/20 04:14:19;;;;;;;24.00;12.93;;;0.10;99.90;;;;;;5033665;28;20479;-69
2022/11/20 04:16:45;;;;;;;23.10;13.80;;;0.10;99.90;;;;;;5033248;28;20956;-68
2022/11/20 04:19:14;;;;;;;27.77;14.87;;;0.10;99.90;;;;;;5032650;28;20455;-68
2022/11/20 04:21:41;;;;;;;30.20;14.33;;;0.10;99.90;;;;;;5033508;28;20463;-69
2022/11/20 04:24:10;;;;;;;27.60;14.57;;;0.10;99.90;;;;;;5034133;28;20473;-68
2022/11/20 04:26:36;;;;;;;29.10;16.40;;;0.00;99.90;;;;;;5033904;28;20479;-68
2022/11/20 04:29:04;;;;;;;29.40;15.07;;;0.00;99.90;;;;;;5034105;28;20467;-68
2022/11/20 04:31:33;;;;;;;35.67;15.63;;;0.00;99.90;;;;;;5033379;28;20498;-68
2022/11/20 04:34:00;;;;;;;31.00;16.20;;;0.00;99.90;;;;;;5033267;28;20538;-68
2022/11/20 04:36:28;;;;;;;29.77;15.67;;;0.00;99.90;;;;;;5033389;28;20834;-69
2022/11/20 04:38:56;;;;;;;30.50;16.20;;;0.10;99.90;;;;;;5033328;28;20475;-68
2022/11/20 04:41:26;;;;;;;32.80;16.07;;;0.10;99.90;;;;;;5033514;28;20943;-69
2022/11/20 04:43:58;;;;;;;32.03;15.97;;;0.10;99.90;;;;;;5033565;28;20474;-68
2022/11/20 04:46:26;;;;;;;26.00;15.00;;;0.10;99.90;;;;;;5033346;28;20939;-68
2022/11/20 04:48:53;;;;;;;33.03;17.50;;;0.10;99.90;;;;;;5033599;28;20448;-68
2022/11/20 04:51:20;;;;;;;39.03;17.47;;;0.20;99.90;;;;;;5033529;28;20573;-68
2022/11/20 04:53:46;;;;;;;28.53;16.00;;;0.20;99.90;;;;;;5033393;28;20472;-69
2022/11/20 04:56:14;;;;;;;29.50;15.93;;;0.20;99.90;;;;;;5033333;28;20456;-68
2022/11/20 04:58:42;;;;;;;31.73;16.73;;;0.20;99.90;;;;;;5033215;28;20875;-69
2022/11/20 05:01:12;;;;;;;33.03;16.20;;;0.20;99.90;;;;;;5032742;28;20460;-68
2022/11/20 05:03:38;;;;;;;38.00;16.73;;;0.20;99.90;;;;;;5033521;28;20460;-68
2022/11/20 05:06:07;;;;;;;30.30;16.07;;;0.30;99.90;;;;;;5032625;28;20460;-68
2022/11/20 05:08:34;;;;;;;35.33;18.83;;;0.20;99.90;;;;;;5033154;28;20482;-68
2022/11/20 05:11:02;;;;;;;30.37;16.83;;;0.20;99.90;;;;;;5032964;28;20454;-68
2022/11/20 05:13:29;;;;;;;35.53;17.93;;;0.10;99.90;;;;;;5032704;28;21085;-68
2022/11/20 05:16:02;;;;;;;34.90;17.20;;;0.20;99.90;;;;;;5032906;28;20547;-68
2022/11/20 05:18:29;;;;;;;35.83;17.90;;;0.20;99.90;;;;;;5033232;28;20458;-68
2022/11/20 05:20:57;;;;;;;38.73;18.80;;;0.30;99.90;;;;;;5032560;28;20456;-68
2022/11/20 05:23:23;;;;;;;36.47;17.53;;;0.30;99.90;;;;;;5032882;28;20538;-68
2022/11/20 05:25:53;;;;;;;34.60;17.73;;;0.30;99.90;;;;;;5032540;28;20454;-68
2022/11/20 05:28:19;;;;;;;32.60;17.73;;;0.30;99.90;;;;;;5032847;28;20499;-69
2022/11/20 05:30:46;;;;;;;34.53;17.93;;;0.30;99.90;;;;;;5032405;28;20462;-68
2022/11/20 05:33:14;;;;;;;30.80;16.90;;;0.30;99.90;;;;;;5032715;28;20475;-69
2022/11/20 05:35:41;;;;;;;36.50;18.00;;;0.30;99.90;;;;;;5032436;28;20453;-69
2022/11/20 05:38:08;;;;;;;38.37;19.53;;;0.30;99.90;;;;;;5033028;28;20458;-68
2022/11/20 05:40:35;;;;;;;36.73;17.70;;;0.20;99.90;;;;;;5032343;28;20456;-68
2022/11/20 05:43:02;;;;;;;34.40;17.43;;;0.20;99.90;;;;;;5032677;28;20498;-68
2022/11/20 05:45:29;;;;;;;34.83;17.90;;;0.20;99.90;;;;;;5032573;28;20479;-69
2022/11/20 05:47:59;;;;;;;38.43;17.23;;;0.20;99.90;;;;;;5032177;28;20487;-69
2022/11/20 05:50:27;;;;;;;32.13;16.20;;;0.20;99.90;;;;;;5032273;28;20480;-68
2022/11/20 05:52:53;;;;;;;33.80;16.70;;;0.10;99.90;;;;;;5031645;28;20487;-68
2022/11/20 05:55:20;;;;;;;32.33;16.90;;;0.20;99.90;;;;;;5032165;28;20468;-69
2022/11/20 05:57:47;;;;;;;33.07;17.10;;;0.20;99.90;;;;;;5031839;28;20455;-68
2022/11/20 06:00:15;;;;;;;37.27;18.43;;;0.30;99.90;;;;;;5032356;28;20479;-69
2022/11/20 06:02:41;;;;;;;32.97;17.73;;;0.30;99.90;;;;;;5031185;28;20946;-69
2022/11/20 06:05:09;;;;;;;38.77;18.87;;;0.30;99.90;;;;;;5031860;28;20457;-69
2022/11/20 06:07:37;;;;;;;38.83;18.60;;;0.20;99.90;;;;;;5031490;28;20487;-69
2022/11/20 06:10:04;;;;;;;39.57;17.23;;;0.20;99.90;;;;;;5032314;28;20480;-68
2022/11/20 06:12:32;;;;;;;35.10;18.33;;;0.20;99.90;;;;;;5031806;28;20473;-69
2022/11/20 06:14:59;;;;;;;39.97;18.33;;;0.30;99.90;;;;;;5032114;28;20453;-68
2022/11/20 06:17:25;;;;;;;38.07;18.97;;;0.30;99.90;;;;;;5031395;28;20477;-68
2022/11/20 06:19:52;;;;;;;35.70;19.30;;;0.20;99.90;;;;;;5032153;28;20801;-69
2022/11/20 06:22:19;;;;;;;38.20;20.00;;;0.20;99.90;;;;;;5030736;28;20460;-68
2022/11/20 06:24:47;;;;;;;34.90;18.30;;;0.20;99.90;;;;;;5031658;28;20477;-68
2022/11/20 06:27:13;;;;;;;42.27;20.47;;;0.20;99.90;;;;;;5031635;28;20460;-68
2022/11/20 06:29:40;;;;;;;35.87;18.70;;;0.20;99.90;;;;;;5031854;28;20476;-68
2022/11/20 06:32:07;;;;;;;40.47;19.20;;;0.20;99.90;;;;;;5031052;28;21021;-68
2022/11/20 06:34:33;;;;;;;40.70;19.60;;;0.30;99.90;;;;;;5031541;28;20499;-69
2022/11/20 06:37:00;;;;;;;38.53;19.37;;;0.30;99.90;;;;;;5031533;28;20462;-68
2022/11/20 06:39:27;;;;;;;39.13;19.90;;;0.30;99.90;;;;;;5031622;28;20457;-68
2022/11/20 06:41:55;;;;;;;42.80;19.50;;;0.30;99.90;;;;;;5031009;28;20455;-68
2022/11/20 06:44:21;;;;;;;35.80;19.00;;;0.30;99.90;;;;;;5031235;28;20475;-69
2022/11/20 06:46:48;;;;;;;40.73;20.60;;;0.40;99.90;;;;;;5031641;28;20873;-68
2022/11/20 06:49:15;;;;;;;41.80;21.33;;;0.40;99.90;;;;;;5031375;28;20512;-68
2022/11/20 06:51:41;;;;;;;37.43;18.73;;;0.40;99.90;;;;;;5031091;28;20463;-68
2022/11/20 06:54:08;;;;;;;37.90;19.27;;;0.40;99.90;;;;;;5031356;28;20470;-68
2022/11/20 06:56:35;;;;;;;37.97;19.10;;;0.50;99.90;;;;;;5031293;28;20507;-68
2022/11/20 06:59:06;;;;;;;40.40;19.77;;;0.50;99.90;;;;;;5031057;28;20454;-68
2022/11/20 07:01:33;;;;;;;35.60;18.83;;;0.40;99.90;;;;;;5030860;28;20487;-69
2022/11/20 07:03:59;;;;;;;38.43;18.37;;;0.30;99.90;;;;;;5031365;28;20483;-69
2022/11/20 07:06:26;;;;;;;42.07;19.17;;;0.30;99.90;;;;;;5031449;28;20457;-68
2022/11/20 07:08:53;;;;;;;37.83;18.77;;;0.30;99.90;;;;;;5031060;28;20496;-68
2022/11/20 07:11:19;;;;;;;35.33;18.57;;;0.30;99.90;;;;;;5031098;28;20451;-68
2022/11/20 07:13:46;;;;;;;38.77;19.17;;;0.30;99.90;;;;;;5030865;28;20850;-68
2022/11/20 07:16:14;;;;;;;44.93;19.57;;;0.30;99.90;;;;;;5034828;28;20469;-68
2022/11/20 07:18:41;;;;;;;40.93;19.43;;;0.40;99.90;;;;;;5035290;28;20451;-68
2022/11/20 07:21:10;;;;;;;41.17;19.73;;;0.40;99.90;;;;;;5035000;28;20484;-68
2022/11/20 07:23:37;;;;;;;38.60;18.87;;;0.40;99.90;;;;;;5034619;28;20476;-68
2022/11/20 07:26:04;;;;;;;42.30;20.00;;;0.40;99.90;;;;;;5034834;28;21612;-68
2022/11/20 07:28:31;;;;;;;41.23;20.43;;;0.60;99.90;;;;;;5034674;28;20481;-68
2022/11/20 07:30:58;;;;;;;39.50;19.90;;;0.50;99.90;;;;;;5034878;28;20456;-68
2022/11/20 07:33:26;;;;;;;42.07;19.07;;;0.50;99.90;;;;;;5034876;28;20469;-68
2022/11/20 07:35:52;;;;;;;41.37;20.07;;;0.60;99.90;;;;;;5034524;28;20504;-68
2022/11/20 07:38:19;;;;;;;44.83;20.97;;;0.60;99.90;;;;;;5034247;28;20447;-68
2022/11/20 07:40:46;;;;;;;43.27;19.80;;;0.60;99.90;;;;;;5034846;28;20458;-68
2022/11/20 07:43:12;;;;;;;44.43;20.07;;;0.60;99.90;;;;;;5034550;28;20483;-69
2022/11/20 07:45:39;;;;;;;40.07;19.50;;;0.70;99.90;;;;;;5034736;28;20456;-68
2022/11/20 07:48:06;;;;;;;41.10;19.43;;;0.70;99.90;;;;;;5034192;28;20492;-68
2022/11/20 07:50:34;;;;;;;39.70;19.70;;;0.80;99.90;;;;;;5034192;28;20483;-67
2022/11/20 07:53:03;;;;;;;44.57;20.10;;;0.80;99.90;;;;;;5033968;28;20466;-67
2022/11/20 07:55:30;;;;;;;42.63;21.07;;;0.90;99.90;;;;;;5034356;28;20499;-68
2022/11/20 07:57:57;;;;;;;41.20;20.10;;;0.90;99.90;;;;;;5034472;28;20532;-68
2022/11/20 08:00:24;;;;;;;41.73;20.60;;;1.00;99.90;;;;;;5034448;28;20953;-68
2022/11/20 08:02:50;;;;;;;40.60;18.93;;;1.00;99.90;;;;;;5034029;28;20946;-67
2022/11/20 08:05:17;;;;;;;42.20;20.57;;;1.10;99.90;;;;;;5034053;28;20450;-68
2022/11/20 08:07:45;;;;;;;37.13;20.20;;;1.20;99.90;;;;;;5034245;28;20457;-67
2022/11/20 08:10:15;;;;;;;40.73;19.53;;;1.20;99.90;;;;;;5034098;28;20504;-68
2022/11/20 08:15:29;;;;;;;44.40;20.40;;;1.30;99.90;;;;;;5033666;28;20453;-67
2022/11/20 08:18:00;;;;;;;39.50;20.33;;;1.30;99.90;;;;;;5034032;28;20450;-67
2022/11/20 08:20:27;;;;;;;46.77;21.10;;;1.30;99.90;;;;;;5033881;28;21192;-67
2022/11/20 08:22:59;;;;;;;41.10;20.17;;;1.40;99.90;;;;;;5032291;28;20473;-69
2022/11/20 08:25:26;;;;;;;44.50;21.90;;;1.40;99.90;;;;;;5033723;28;20508;-69
2022/11/20 08:27:52;;;;;;;44.30;20.60;;;1.40;99.90;;;;;;5033519;28;20856;-68
2022/11/20 08:30:19;;;;;;;46.97;22.13;;;1.50;99.90;;;;;;5034118;28;20450;-69
2022/11/20 08:32:46;;;;;;;44.63;21.03;;;1.60;99.90;;;;;;5027556;28;21041;-69
2022/11/20 08:35:13;;;;;;;43.07;20.97;;;1.60;99.90;;;;;;5028484;28;20466;-69
2022/11/20 08:37:41;;;;;;;44.90;20.70;;;1.60;99.90;;;;;;5030265;28;20450;-68
2022/11/20 08:40:11;;;;;;;34.10;19.17;;;1.70;99.90;;;;;;5024500;28;20533;-68
2022/11/20 08:42:38;;;;;;;40.00;19.60;;;1.70;99.90;;;;;;5027538;28;20459;-69
2022/11/20 08:45:05;;;;;;;39.43;19.97;;;1.70;99.90;;;;;;5024390;28;20459;-69
2022/11/20 08:47:32;;;;;;;42.07;20.30;;;1.70;99.90;;;;;;5013941;28;20462;-70
2022/11/20 08:49:58;;;;;;;49.47;20.20;;;1.70;99.90;;;;;;5013665;28;20487;-70
2022/11/20 08:52:25;;;;;;;39.43;19.20;;;1.80;99.90;;;;;;5032792;28;20458;-69
2022/11/20 08:54:52;;;;;;;40.90;21.10;;;1.80;99.90;;;;;;5032677;28;20489;-70
2022/11/20 08:57:20;;;;;;;43.77;21.37;;;1.80;99.90;;;;;;5033272;28;20451;-69
2022/11/20 08:59:47;;;;;;;40.63;20.50;;;1.90;99.90;;;;;;5033395;28;20453;-67
2022/11/20 09:02:13;;;;;;;43.23;20.40;;;2.00;99.90;;;;;;5032748;28;20454;-67
2022/11/20 09:04:40;;;;;;;43.30;20.20;;;2.10;99.90;;;;;;5033058;28;20470;-69
2022/11/20 09:07:07;;;;;;;44.27;19.73;;;2.20;99.90;;;;;;5032337;28;20958;-68
2022/11/20 09:09:34;;;;;;;43.60;19.67;;;2.20;99.90;;;;;;5032259;28;20488;-68
2022/11/20 09:12:00;;;;;;;38.80;19.70;;;2.20;99.90;;;;;;5032952;28;20454;-68
2022/11/20 09:14:29;;;;;;;44.83;20.13;;;2.20;99.90;;;;;;5033080;28;20470;-68
2022/11/20 09:16:56;;;;;;;44.70;20.20;;;2.30;99.90;;;;;;5032832;28;20490;-68
2022/11/20 09:19:25;;;;;;;45.23;20.50;;;2.30;99.90;;;;;;5032679;28;20500;-67
2022/11/20 09:21:51;;;;;;;43.70;20.17;;;2.30;99.90;;;;;;5032367;28;20445;-68
2022/11/20 09:24:18;;;;;;;42.23;20.93;;;2.30;99.90;;;;;;5032522;28;20809;-68
2022/11/20 09:26:45;;;;;;;39.17;20.83;;;2.20;99.90;;;;;;5026809;28;20462;-68
2022/11/20 09:29:12;;;;;;;46.20;20.03;;;2.20;99.90;;;;;;5032397;28;20882;-69
2022/11/20 09:31:40;;;;;;;52.87;24.90;;;2.10;99.90;;;;;;5032383;28;20454;-69
2022/11/20 09:34:06;;;;;;;51.27;22.37;;;2.10;99.90;;;;;;5032243;28;20478;-68
2022/11/20 09:36:33;;;;;;;46.07;22.37;;;2.00;99.90;;;;;;5031972;28;20512;-68
2022/11/20 09:39:00;;;;;;;42.50;20.20;;;2.00;99.90;;;;;;5031743;28;20458;-68
2022/11/20 09:41:43;;;;;;;46.70;20.90;;;2.00;99.90;;;;;;5032283;28;20446;-68
2022/11/20 09:44:25;;;;;;;43.50;20.03;;;2.10;99.90;;;;;;5032392;28;20497;-68
2022/11/20 09:46:58;;;;;;;42.40;19.13;;;2.10;99.90;;;;;;5032456;28;20457;-68
2022/11/20 09:49:33;;;;;;;46.77;21.53;;;2.10;99.90;;;;;;5032213;28;20488;-68
2022/11/20 09:52:06;;;;;;;42.77;21.30;;;2.10;99.90;;;;;;5031848;28;20459;-69
2022/11/20 09:54:36;;;;;;;47.87;20.77;;;2.10;99.90;;;;;;5032068;28;21036;-68
2022/11/20 09:57:09;;;;;;;39.83;18.97;;;2.20;99.90;;;;;;5032175;28;20450;-68
2022/11/20 09:59:41;;;;;;;43.13;22.07;;;2.20;99.90;;;;;;5032095;28;20492;-68
2022/11/20 10:02:18;;;;;;;48.10;21.70;;;2.10;99.90;;;;;;5031847;28;20447;-68
2022/11/20 10:04:52;;;;;;;42.47;20.33;;;2.00;99.90;;;;;;5031471;28;20512;-67
2022/11/20 10:07:23;;;;;;;44.40;21.10;;;2.00;99.90;;;;;;5031789;28;20480;-68
2022/11/20 10:09:54;;;;;;;43.07;20.80;;;2.00;99.90;;;;;;5032142;28;20489;-68
2022/11/20 10:12:28;;;;;;;48.70;22.13;;;2.10;99.90;;;;;;5032047;28;20477;-67
2022/11/20 10:15:07;;;;;;;44.47;19.50;;;2.10;99.90;;;;;;5032003;28;20585;-69
2022/11/20 10:17:55;;;;;;;48.57;20.83;;;2.10;99.90;;;;;;5031487;28;21297;-68
2022/11/20 10:20:30;;;;;;;57.63;22.77;;;2.10;99.90;;;;;;5031992;28;20477;-68
2022/11/20 10:23:22;;;;;;;48.60;22.07;;;2.20;99.90;;;;;;5031540;28;20822;-68
2022/11/20 10:25:56;;;;;;;46.03;20.83;;;2.20;99.90;;;;;;5031468;28;20450;-69
2022/11/20 10:28:37;;;;;;;46.23;20.93;;;2.30;99.90;;;;;;5031830;28;20456;-69
2022/11/20 10:31:10;;;;;;;51.40;21.10;;;2.30;99.90;;;;;;5031202;28;20445;-68
2022/11/20 10:33:41;;;;;;;52.30;22.03;;;2.30;99.90;;;;;;5031353;28;20849;-69
2022/11/20 10:36:14;;;;;;;50.33;22.50;;;2.20;99.90;;;;;;5031432;28;20950;-69
2022/11/20 10:38:45;;;;;;;56.43;23.47;;;2.10;99.90;;;;;;5031544;28;20500;-69
2022/11/20 10:41:27;;;;;;;47.27;20.87;;;2.10;99.90;;;;;;5031216;28;20450;-69
2022/11/20 10:44:02;;;;;;;46.70;20.47;;;2.10;99.90;;;;;;5031553;28;20474;-69
2022/11/20 10:46:37;;;;;;;56.70;23.23;;;2.10;99.90;;;;;;5030430;28;20805;-68
2022/11/20 10:49:13;;;;;;;57.37;22.47;;;2.10;99.90;;;;;;5030699;28;20576;-68
2022/11/20 10:51:51;;;;;;;58.00;23.87;;;2.00;99.90;;;;;;5031329;28;20833;-68
2022/11/20 10:54:23;;;;;;;49.50;21.57;;;2.00;99.90;;;;;;5030885;28;20473;-67
2022/11/20 10:56:52;;;;;;;50.50;22.00;;;2.00;99.90;;;;;;5030512;28;20451;-67
2022/11/20 10:59:57;;;;;;;52.20;24.60;;;2.00;99.90;;;;;;5030041;28;20451;-68
2022/11/20 11:02:25;;;;;;;54.90;24.63;;;2.00;99.90;;;;;;4968569;28;20461;-67
2022/11/20 11:04:54;;;;;;;49.20;22.70;;;2.00;99.90;;;;;;5019400;28;20470;-67
2022/11/20 11:07:25;;;;;;;51.40;23.60;;;2.10;99.90;;;;;;5030411;28;20461;-67
2022/11/20 11:09:54;;;;;;;60.67;25.33;;;2.20;99.90;;;;;;5030251;28;20485;-69
2022/11/20 11:12:22;;;;;;;56.03;24.60;;;2.20;99.90;;;;;;5030056;28;20460;-68
2022/11/20 11:14:51;;;;;;;66.10;27.10;;;2.30;99.90;;;;;;5030052;28;20527;-69
2022/11/20 11:17:29;;;;;;;54.17;23.20;;;2.40;99.90;;;;;;5028750;28;20461;-68
2022/11/20 11:20:05;;;;;;;53.77;24.67;;;2.50;99.90;;;;;;5030181;28;20450;-68
2022/11/20 11:22:34;;;;;;;60.13;26.40;;;2.50;99.90;;;;;;5030410;28;20457;-69
2022/11/20 11:25:02;;;;;;;51.60;24.20;;;2.50;99.90;;;;;;5030255;28;20473;-68
2022/11/20 11:27:29;;;;;;;62.50;26.20;;;2.40;99.90;;;;;;5023631;28;20462;-68
2022/11/20 11:30:15;;;;;;;65.27;26.00;;;2.40;99.90;;;;;;5029848;28;20478;-69
2022/11/20 11:32:42;;;;;;;57.50;25.87;;;2.40;99.90;;;;;;5026056;28;20455;-68
2022/11/20 11:35:23;;;;;;;55.40;25.50;;;2.40;99.90;;;;;;5030479;28;20459;-68
2022/11/20 11:37:51;;;;;;;56.00;25.53;;;2.50;99.90;;;;;;5030247;28;20457;-68
2022/11/20 11:40:19;;;;;;;57.30;26.43;;;2.60;99.90;;;;;;5030474;28;20448;-68
2022/11/20 11:42:54;;;;;;;58.07;27.73;;;2.60;99.90;;;;;;5029571;28;20487;-69
2022/11/20 11:45:21;;;;;;;72.53;26.70;;;2.60;99.90;;;;;;5029733;28;20462;-69
2022/11/20 11:47:49;;;;;;;58.03;25.53;;;2.60;99.90;;;;;;5027494;28;20454;-68
2022/11/20 11:50:18;;;;;;;53.97;25.00;;;2.70;99.90;;;;;;5029424;28;20482;-68
2022/11/20 11:52:51;;;;;;;57.93;25.20;;;2.70;99.90;;;;;;5030013;28;20536;-68
2022/11/20 11:55:26;;;;;;;55.27;25.40;;;2.80;99.90;;;;;;5024454;28;20454;-68
2022/11/20 11:57:58;;;;;;;50.57;23.60;;;2.90;99.90;;;;;;5028384;28;20966;-68
2022/11/20 12:00:25;;;;;;;62.27;25.50;;;3.10;99.90;;;;;;5027117;28;20934;-68
2022/11/20 12:03:03;;;;;;;53.97;24.50;;;3.30;99.90;;;;;;5033810;28;20473;-68
2022/11/20 12:05:36;;;;;;;53.53;23.80;;;3.30;99.90;;;;;;5032990;28;20453;-68
2022/11/20 12:08:12;;;;;;;61.40;24.80;;;3.30;99.90;;;;;;5032278;28;20534;-70
2022/11/20 12:10:46;;;;;;;56.63;25.43;;;3.40;99.90;;;;;;5032636;28;20528;-70
2022/11/20 12:13:26;;;;;;;58.43;23.90;;;3.40;99.90;;;;;;5033147;28;20472;-68
2022/11/20 12:15:54;;;;;;;57.53;25.43;;;3.40;99.90;;;;;;5032019;28;20449;-68
2022/11/20 12:18:23;;;;;;;66.20;24.37;;;3.30;99.90;;;;;;5032671;28;20473;-71
2022/11/20 12:20:58;;;;;;;57.00;23.90;;;3.20;99.90;;;;;;5032196;28;20453;-69
2022/11/20 12:23:35;;;;;;;54.27;23.87;;;3.30;99.90;;;;;;5031359;28;20480;-69
2022/11/20 12:26:09;;;;;;;63.73;24.70;;;3.10;99.90;;;;;;5032593;28;20450;-68
2022/11/20 12:28:52;;;;;;;57.60;23.90;;;3.10;99.90;;;;;;5033303;28;20463;-67
2022/11/20 12:31:42;;;;;;;50.50;22.27;;;3.10;99.90;;;;;;5030958;28;20450;-68
2022/11/20 12:34:41;;;;;;;52.07;22.67;;;3.00;99.90;;;;;;5032006;28;20467;-68
2022/11/20 12:37:13;;;;;;;58.10;24.43;;;3.00;99.90;;;;;;5031517;28;20446;-68
2022/11/20 12:39:43;;;;;;;54.77;24.13;;;2.80;99.90;;;;;;5025941;28;20448;-68
2022/11/20 12:45:51;;;;;;;59.87;24.07;;;2.60;99.90;;;;;;5028465;28;20488;-68
2022/11/20 12:48:36;;;;;;;58.13;23.70;;;2.60;99.90;;;;;;5026849;28;20456;-67
2022/11/20 12:51:25;;;;;;;60.83;23.57;;;2.60;99.90;;;;;;5031836;28;20478;-68
2022/11/20 12:54:06;;;;;;;60.40;24.57;;;2.60;99.90;;;;;;5032511;28;20466;-68
2022/11/20 12:56:43;;;;;;;55.80;24.77;;;2.60;99.90;;;;;;5032662;28;20993;-68